createdAt,value
2022-12-01T00:00:33.869Z,-0.12
2022-12-01T00:03:36.015Z,-0.13
2022-12-01T00:06:37.477Z,0.07
2022-12-01T00:09:38.897Z,0.12
2022-12-01T00:12:40.389Z,0.09
2022-12-01T00:15:41.855Z,0.14
2022-12-01T00:18:43.662Z,0.14
2022-12-01T00:21:46.175Z,0.12
2022-12-01T00:24:47.707Z,0.11
2022-12-01T00:27:50.472Z,0.01
2022-12-01T00:30:51.920Z,-0.06
2022-12-01T00:33:53.405Z,0.03
2022-12-01T00:36:55.311Z,0.09
2022-12-01T00:39:57.687Z,0.28
2022-12-01T00:42:59.073Z,0.66
2022-12-01T00:46:00.733Z,1.11
2022-12-01T00:49:02.270Z,1.43
2022-12-01T00:52:03.768Z,1.70
2022-12-01T00:55:05.642Z,1.91
2022-12-01T00:58:07.257Z,1.99
2022-12-01T01:01:08.805Z,2.06
2022-12-01T01:04:10.361Z,2.06
2022-12-01T01:07:11.864Z,2.17
2022-12-01T01:10:13.274Z,2.22
2022-12-01T01:13:15.178Z,2.26
2022-12-01T01:16:20.146Z,2.28
2022-12-01T01:19:22.075Z,2.39
2022-12-01T01:22:23.480Z,2.40
2022-12-01T01:25:25.143Z,2.37
2022-12-01T01:28:26.595Z,2.37
2022-12-01T01:31:30.301Z,2.40
2022-12-01T01:34:31.844Z,2.43
2022-12-01T01:37:33.245Z,2.46
2022-12-01T01:40:34.728Z,2.46
2022-12-01T01:43:43.661Z,2.49
2022-12-01T01:46:45.092Z,2.53
2022-12-01T01:49:47.468Z,2.52
2022-12-01T01:52:54.968Z,2.55
2022-12-01T01:55:56.864Z,2.54
2022-12-01T01:58:59.209Z,2.51
2022-12-01T02:02:05.372Z,2.53
2022-12-01T02:05:09.396Z,2.60
2022-12-01T02:08:11.424Z,2.63
2022-12-01T02:11:40.173Z,2.70
2022-12-01T02:14:56.682Z,2.74
2022-12-01T02:18:13.644Z,2.73
2022-12-01T02:21:30.212Z,2.78
2022-12-01T02:25:09.245Z,2.80
2022-12-01T02:28:16.664Z,2.84
2022-12-01T02:31:36.608Z,2.92
2022-12-01T02:34:44.750Z,2.93
2022-12-01T02:37:56.801Z,3.01
2022-12-01T02:41:26.260Z,2.90
2022-12-01T02:44:36.013Z,2.72
2022-12-01T02:47:40.259Z,2.58
2022-12-01T02:50:42.460Z,2.52
2022-12-01T02:53:44.381Z,2.42
2022-12-01T02:56:45.787Z,2.37
2022-12-01T02:59:50.662Z,2.49
2022-12-01T03:03:08.738Z,2.51
2022-12-01T03:06:29.787Z,2.40
2022-12-01T03:09:50.120Z,2.36
2022-12-01T03:13:10.427Z,2.32
2022-12-01T03:16:14.300Z,2.25
2022-12-01T03:19:26.451Z,1.99
2022-12-01T03:22:41.527Z,1.68
2022-12-01T03:25:48.287Z,1.65
2022-12-01T03:28:56.513Z,1.71
2022-12-01T03:32:03.424Z,1.68
2022-12-01T03:35:10.491Z,1.79
2022-12-01T03:38:15.501Z,1.83
2022-12-01T03:41:24.696Z,1.69
2022-12-01T03:44:34.298Z,1.53
2022-12-01T03:47:36.170Z,1.47
2022-12-01T03:51:12.662Z,1.57
2022-12-01T03:54:22.038Z,1.55
2022-12-01T03:57:34.704Z,1.30
2022-12-01T04:00:37.197Z,1.22
2022-12-01T04:03:38.917Z,1.17
2022-12-01T04:06:43.131Z,1.18
2022-12-01T04:09:44.528Z,1.32
2022-12-01T04:12:46.054Z,1.31
2022-12-01T04:15:47.865Z,1.34
2022-12-01T04:18:49.347Z,1.44
2022-12-01T04:21:50.821Z,1.45
2022-12-01T04:24:52.720Z,1.52
2022-12-01T04:27:54.097Z,1.68
2022-12-01T04:30:55.595Z,1.81
2022-12-01T04:33:58.854Z,1.98
2022-12-01T04:37:00.549Z,2.07
2022-12-01T04:40:02.014Z,2.08
2022-12-01T04:43:03.450Z,2.15
2022-12-01T04:46:05.635Z,2.19
2022-12-01T04:49:07.085Z,2.24
2022-12-01T04:52:08.538Z,2.28
2022-12-01T04:55:10.308Z,2.31
2022-12-01T04:58:11.851Z,2.24
2022-12-01T05:01:15.794Z,2.21
2022-12-01T05:04:17.247Z,2.05
2022-12-01T05:07:18.791Z,1.97
2022-12-01T05:10:20.344Z,1.89
2022-12-01T05:13:21.798Z,1.79
2022-12-01T05:16:26.283Z,1.72
2022-12-01T05:19:27.852Z,1.78
2022-12-01T05:23:03.238Z,1.87
2022-12-01T05:25:51.153Z,1.68
2022-12-01T05:28:52.536Z,1.55
2022-12-01T05:31:54.032Z,1.51
2022-12-01T05:34:55.550Z,1.43
2022-12-01T05:37:56.963Z,1.24
2022-12-01T05:40:58.379Z,1.01
2022-12-01T05:43:59.763Z,1.09
2022-12-01T05:47:01.187Z,1.16
2022-12-01T05:50:05.771Z,1.30
2022-12-01T05:53:08.010Z,1.44
2022-12-01T05:56:09.587Z,1.43
2022-12-01T05:59:10.990Z,1.40
2022-12-01T06:02:12.408Z,1.43
2022-12-01T06:05:13.864Z,1.47
2022-12-01T06:08:15.325Z,1.45
2022-12-01T06:11:16.796Z,1.53
2022-12-01T06:14:18.318Z,1.53
2022-12-01T06:17:19.740Z,1.48
2022-12-01T06:20:21.204Z,1.49
2022-12-01T06:23:26.306Z,1.48
2022-12-01T06:26:30.343Z,1.51
2022-12-01T06:29:31.865Z,1.44
2022-12-01T06:32:33.383Z,1.35
2022-12-01T06:35:35.679Z,1.14
2022-12-01T06:38:37.565Z,1.13
2022-12-01T06:41:39.242Z,1.11
2022-12-01T06:44:40.742Z,1.27
2022-12-01T06:47:42.164Z,1.31
2022-12-01T06:50:43.626Z,1.32
2022-12-01T06:53:45.007Z,1.42
2022-12-01T06:56:46.491Z,1.55
2022-12-01T06:59:48.403Z,1.56
2022-12-01T07:02:50.941Z,1.55
2022-12-01T07:05:57.535Z,1.57
2022-12-01T07:08:58.998Z,1.60
2022-12-01T07:12:00.459Z,1.59
2022-12-01T07:15:02.213Z,1.61
2022-12-01T07:18:03.635Z,1.65
2022-12-01T07:21:07.532Z,1.70
2022-12-01T07:24:09.234Z,1.79
2022-12-01T07:27:10.742Z,1.88
2022-12-01T07:30:12.549Z,1.95
2022-12-01T07:33:13.973Z,2.03
2022-12-01T07:36:15.596Z,2.06
2022-12-01T07:39:17.074Z,2.12
2022-12-01T07:42:18.465Z,2.17
2022-12-01T07:45:19.892Z,2.18
2022-12-01T07:48:21.348Z,2.14
2022-12-01T07:51:24.659Z,2.17
2022-12-01T07:54:26.084Z,2.10
2022-12-01T07:57:27.658Z,2.11
2022-12-01T08:00:29.073Z,2.11
2022-12-01T08:03:30.533Z,2.23
2022-12-01T08:06:31.933Z,2.35
2022-12-01T08:09:33.324Z,2.48
2022-12-01T08:12:35.150Z,2.59
2022-12-01T08:15:36.756Z,2.68
2022-12-01T08:18:39.664Z,2.75
2022-12-01T08:21:41.488Z,2.84
2022-12-01T08:24:43.012Z,2.91
2022-12-01T08:27:44.772Z,2.93
2022-12-01T08:30:47.358Z,2.96
2022-12-01T08:33:49.760Z,2.94
2022-12-01T08:36:51.374Z,2.97
2022-12-01T08:39:52.826Z,3.03
2022-12-01T08:43:03.157Z,3.06
2022-12-01T08:46:06.644Z,3.11
2022-12-01T08:49:08.157Z,3.23
2022-12-01T08:52:09.613Z,3.34
2022-12-01T08:55:11.574Z,3.50
2022-12-01T08:58:13.046Z,3.62
2022-12-01T09:01:16.060Z,3.67
2022-12-01T09:04:22.637Z,3.75
2022-12-01T09:07:26.574Z,3.69
2022-12-01T09:10:28.514Z,3.65
2022-12-01T09:13:30.819Z,3.67
2022-12-01T09:16:33.315Z,3.77
2022-12-01T09:19:35.307Z,3.88
2022-12-01T09:22:36.749Z,3.99
2022-12-01T09:25:38.204Z,4.09
2022-12-01T09:28:39.619Z,4.20
2022-12-01T09:31:42.011Z,4.26
2022-12-01T09:34:43.572Z,4.36
2022-12-01T09:37:44.965Z,4.45
2022-12-01T09:40:46.434Z,4.55
2022-12-01T09:44:00.853Z,4.65
2022-12-01T09:47:23.905Z,4.52
2022-12-01T09:50:26.770Z,4.26
2022-12-01T09:53:29.216Z,4.05
2022-12-01T09:56:39.512Z,4.05
2022-12-01T09:59:41.501Z,4.12
2022-12-01T10:03:09.255Z,4.20
2022-12-01T10:06:27.683Z,4.28
2022-12-01T10:09:44.250Z,4.35
2022-12-01T10:12:47.060Z,4.40
2022-12-01T10:15:54.780Z,4.45
2022-12-01T10:18:56.254Z,4.49
2022-12-01T10:22:29.882Z,4.51
2022-12-01T10:25:45.830Z,4.54
2022-12-01T10:29:05.588Z,4.55
2022-12-01T10:32:19.208Z,4.60
2022-12-01T10:35:23.363Z,4.66
2022-12-01T10:38:29.348Z,4.70
2022-12-01T10:41:35.009Z,4.76
2022-12-01T10:44:36.561Z,4.84
2022-12-01T10:47:38.004Z,4.85
2022-12-01T10:50:39.451Z,4.82
2022-12-01T10:53:42.051Z,4.90
2022-12-01T10:56:47.008Z,5.03
2022-12-01T10:59:52.699Z,5.11
2022-12-01T11:02:55.189Z,5.35
2022-12-01T11:05:59.762Z,5.37
2022-12-01T11:09:03.873Z,5.46
2022-12-01T11:12:05.543Z,5.48
2022-12-01T11:15:08.028Z,5.37
2022-12-01T11:18:28.350Z,5.33
2022-12-01T11:21:29.823Z,5.33
2022-12-01T11:24:53.716Z,5.25
2022-12-01T11:28:20.042Z,5.31
2022-12-01T11:31:34.631Z,5.37
2022-12-01T11:34:36.183Z,5.32
2022-12-01T11:37:54.918Z,5.18
2022-12-01T11:41:28.859Z,5.22
2022-12-01T11:44:50.969Z,5.17
2022-12-01T11:47:59.033Z,5.16
2022-12-01T11:51:11.659Z,5.18
2022-12-01T11:54:20.003Z,5.15
2022-12-01T11:57:36.633Z,5.39
2022-12-01T12:00:50.006Z,5.64
2022-12-01T12:04:19.130Z,5.95
2022-12-01T12:07:35.950Z,6.13
2022-12-01T12:10:57.092Z,6.14
2022-12-01T12:14:29.775Z,5.98
2022-12-01T12:18:09.098Z,5.75
2022-12-01T12:21:38.626Z,5.68
2022-12-01T12:25:04.056Z,5.68
2022-12-01T12:28:28.391Z,5.63
2022-12-01T12:31:58.475Z,5.66
2022-12-01T12:35:15.879Z,5.68
2022-12-01T12:38:54.950Z,5.69
2022-12-01T12:41:57.634Z,5.86
2022-12-01T12:45:14.893Z,5.84
2022-12-01T12:49:12.131Z,5.89
2022-12-01T12:52:45.346Z,5.92
2022-12-01T12:55:50.813Z,5.91
2022-12-01T12:59:09.931Z,5.83
2022-12-01T13:02:19.817Z,5.79
2022-12-01T13:05:27.518Z,5.91
2022-12-01T13:08:40.352Z,6.18
2022-12-01T13:11:47.531Z,6.19
2022-12-01T13:14:59.421Z,6.29
2022-12-01T13:18:18.884Z,6.41
2022-12-01T13:21:22.819Z,6.34
2022-12-01T13:24:27.884Z,6.19
2022-12-01T13:27:47.835Z,6.27
2022-12-01T13:31:07.275Z,6.24
2022-12-01T13:34:20.557Z,6.07
2022-12-01T13:37:28.314Z,5.90
2022-12-01T13:40:31.091Z,5.78
2022-12-01T13:43:32.544Z,5.69
2022-12-01T13:46:36.921Z,5.60
2022-12-01T13:49:41.369Z,5.56
2022-12-01T13:52:50.162Z,5.54
2022-12-01T13:56:00.776Z,5.54
2022-12-01T13:59:02.407Z,5.59
2022-12-01T14:02:16.059Z,5.56
2022-12-01T14:05:41.584Z,5.47
2022-12-01T14:08:48.883Z,5.51
2022-12-01T14:12:10.671Z,5.45
2022-12-01T14:15:29.441Z,5.41
2022-12-01T14:18:34.803Z,5.31
2022-12-01T14:21:45.891Z,5.29
2022-12-01T14:24:52.569Z,5.23
2022-12-01T14:27:59.829Z,5.20
2022-12-01T14:31:17.503Z,5.12
2022-12-01T14:34:29.724Z,5.08
2022-12-01T14:37:39.289Z,4.99
2022-12-01T14:40:40.875Z,4.87
2022-12-01T14:43:43.125Z,4.83
2022-12-01T14:47:12.036Z,4.71
2022-12-01T14:50:32.710Z,4.67
2022-12-01T14:53:38.611Z,4.55
2022-12-01T14:56:41.462Z,4.46
2022-12-01T14:59:42.969Z,4.29
2022-12-01T15:02:59.886Z,4.19
2022-12-01T15:06:01.395Z,4.17
2022-12-01T15:09:32.742Z,4.13
2022-12-01T15:12:33.638Z,4.08
2022-12-01T15:15:35.098Z,3.97
2022-12-01T15:18:36.853Z,3.84
2022-12-01T15:21:38.355Z,3.76
2022-12-01T15:24:40.491Z,3.68
2022-12-01T15:27:44.776Z,3.58
2022-12-01T15:30:47.473Z,3.43
2022-12-01T15:33:52.052Z,3.33
2022-12-01T15:36:54.285Z,3.26
2022-12-01T15:43:27.995Z,2.95
2022-12-01T15:46:31.863Z,3.03
2022-12-01T15:49:33.314Z,3.06
2022-12-01T15:52:44.579Z,2.96
2022-12-01T15:55:50.078Z,2.86
2022-12-01T15:58:58.103Z,2.81
2022-12-01T16:02:05.329Z,2.79
2022-12-01T16:05:12.828Z,2.68
2022-12-01T16:08:24.391Z,2.48
2022-12-01T16:11:26.635Z,2.34
2022-12-01T16:14:28.103Z,2.30
2022-12-01T16:17:42.924Z,2.23
2022-12-01T16:20:44.518Z,2.20
2022-12-01T16:23:45.987Z,2.20
2022-12-01T16:27:10.293Z,2.04
2022-12-01T16:30:27.132Z,1.89
2022-12-01T16:33:29.457Z,1.76
2022-12-01T16:36:31.161Z,1.63
2022-12-01T16:39:32.631Z,1.62
2022-12-01T16:42:34.149Z,1.53
2022-12-01T16:45:35.913Z,1.40
2022-12-01T16:48:37.641Z,1.37
2022-12-01T16:51:54.837Z,1.17
2022-12-01T16:54:57.709Z,1.30
2022-12-01T16:57:59.431Z,1.28
2022-12-01T17:01:01.030Z,1.32
2022-12-01T17:04:07.376Z,1.47
2022-12-01T17:07:09.331Z,1.57
2022-12-01T17:10:11.912Z,1.68
2022-12-01T17:13:13.974Z,1.61
2022-12-01T17:16:18.441Z,1.55
2022-12-01T17:19:20.353Z,1.39
2022-12-01T17:22:21.945Z,1.28
2022-12-01T17:25:23.810Z,1.15
2022-12-01T17:28:25.807Z,1.14
2022-12-01T17:31:27.321Z,1.20
2022-12-01T17:34:29.037Z,1.22
2022-12-01T17:37:30.586Z,1.16
2022-12-01T17:40:32.611Z,1.13
2022-12-01T17:43:36.903Z,1.01
2022-12-01T17:46:38.812Z,1.07
2022-12-01T17:49:40.349Z,1.10
2022-12-01T17:52:42.443Z,1.00
2022-12-01T17:55:44.270Z,0.88
2022-12-01T17:58:47.534Z,0.77
2022-12-01T18:01:52.479Z,0.79
2022-12-01T18:04:54.267Z,0.71
2022-12-01T18:07:56.009Z,0.55
2022-12-01T18:11:03.311Z,0.51
2022-12-01T18:14:10.552Z,0.41
2022-12-01T18:17:12.229Z,0.33
2022-12-01T18:20:14.707Z,0.22
2022-12-01T18:23:16.128Z,0.10
2022-12-01T18:26:18.218Z,-0.01
2022-12-01T18:29:26.339Z,-0.05
2022-12-01T18:32:28.178Z,-0.05
2022-12-01T18:35:32.006Z,-0.04
2022-12-01T18:38:34.629Z,0.01
2022-12-01T18:41:36.963Z,0.05
2022-12-01T18:44:38.446Z,0.07
2022-12-01T18:47:39.908Z,0.16
2022-12-01T18:50:41.578Z,0.22
2022-12-01T18:53:43.351Z,0.40
2022-12-01T18:56:45.116Z,0.66
2022-12-01T18:59:46.625Z,0.86
2022-12-01T19:02:48.096Z,0.85
2022-12-01T19:05:49.767Z,0.76
2022-12-01T19:08:52.684Z,0.75
2022-12-01T19:11:57.547Z,0.87
2022-12-01T19:15:03.353Z,0.82
2022-12-01T19:18:05.134Z,0.85
2022-12-01T19:21:08.449Z,0.89
2022-12-01T19:24:09.883Z,0.81
2022-12-01T19:27:11.465Z,0.71
2022-12-01T19:30:14.691Z,0.70
2022-12-01T19:33:19.354Z,0.72
2022-12-01T19:36:26.231Z,0.75
2022-12-01T19:39:28.095Z,0.86
2022-12-01T19:42:29.536Z,0.99
2022-12-01T19:45:31.091Z,1.04
2022-12-01T19:48:32.791Z,1.14
2022-12-01T19:51:39.223Z,1.21
2022-12-01T19:54:40.898Z,1.31
2022-12-01T19:57:42.397Z,1.37
2022-12-01T20:00:44.605Z,1.47
2022-12-01T20:03:48.548Z,1.49
2022-12-01T20:06:50.117Z,1.51
2022-12-01T20:09:51.601Z,1.56
2022-12-01T20:12:53.026Z,1.63
2022-12-01T20:15:58.055Z,1.62
2022-12-01T20:19:01.687Z,1.64
2022-12-01T20:22:03.380Z,1.66
2022-12-01T20:25:08.283Z,1.70
2022-12-01T20:28:09.764Z,1.76
2022-12-01T20:31:18.656Z,1.79
2022-12-01T20:34:32.678Z,1.81
2022-12-01T20:37:34.509Z,1.84
2022-12-01T20:40:36.249Z,1.87
2022-12-01T20:43:38.169Z,1.88
2022-12-01T20:46:47.691Z,1.89
2022-12-01T20:49:52.086Z,1.96
2022-12-01T20:53:02.554Z,2.04
2022-12-01T20:56:21.825Z,2.07
2022-12-01T20:59:23.388Z,2.10
2022-12-01T21:02:24.904Z,2.15
2022-12-01T21:05:27.315Z,2.16
2022-12-01T21:08:28.756Z,2.15
2022-12-01T21:11:34.731Z,2.17
2022-12-01T21:14:56.558Z,2.17
2022-12-01T21:18:05.326Z,2.16
2022-12-01T21:21:25.374Z,2.18
2022-12-01T21:24:33.541Z,2.17
2022-12-01T21:27:36.376Z,2.20
2022-12-01T21:30:37.822Z,2.21
2022-12-01T21:33:40.557Z,2.27
2022-12-01T21:36:41.960Z,2.34
2022-12-01T21:39:43.444Z,2.42
2022-12-01T21:42:44.860Z,2.41
2022-12-01T21:45:49.748Z,2.34
2022-12-01T21:48:51.177Z,2.33
2022-12-01T21:51:53.490Z,2.32
2022-12-01T21:55:00.440Z,2.29
2022-12-01T21:58:02.487Z,2.23
2022-12-01T22:01:16.538Z,2.22
2022-12-01T22:04:29.300Z,2.28
2022-12-01T22:07:30.855Z,2.26
2022-12-01T22:10:58.979Z,2.25
2022-12-01T22:14:22.430Z,2.24
2022-12-01T22:17:23.943Z,2.28
2022-12-01T22:20:25.476Z,2.36
2022-12-01T22:23:32.949Z,2.45
2022-12-01T22:26:37.259Z,2.49
2022-12-01T22:29:44.287Z,2.56
2022-12-01T22:32:54.808Z,2.56
2022-12-01T22:35:56.275Z,2.52
2022-12-01T22:38:58.541Z,2.53
2022-12-01T22:42:05.254Z,2.52
2022-12-01T22:45:24.648Z,2.53
2022-12-01T22:48:46.567Z,2.53
2022-12-01T22:51:50.419Z,2.53
2022-12-01T22:54:52.218Z,2.52
2022-12-01T22:57:54.664Z,2.53
2022-12-01T23:01:00.878Z,2.51
2022-12-01T23:04:18.833Z,2.50
2022-12-01T23:07:28.655Z,2.51
2022-12-01T23:10:34.108Z,2.50
2022-12-01T23:13:35.561Z,2.53
2022-12-01T23:16:39.761Z,2.54
2022-12-01T23:19:41.110Z,2.52
2022-12-01T23:22:42.570Z,2.52
2022-12-01T23:25:45.221Z,2.49
2022-12-01T23:28:46.683Z,2.53
2022-12-01T23:31:49.972Z,2.52
2022-12-01T23:34:54.648Z,2.49
2022-12-01T23:38:00.071Z,2.51
2022-12-01T23:41:05.602Z,2.54
2022-12-01T23:44:26.380Z,2.58
2022-12-01T23:47:29.216Z,2.61
2022-12-01T23:50:31.161Z,2.62
2022-12-01T23:53:32.985Z,2.62
2022-12-01T23:56:37.492Z,2.59
2022-12-01T23:59:39.072Z,2.58
